Bisbee, AZ (85603)

10:29 PM MST on September 02, 2015 (GMT -0700)
Bisbee, Historic Old | | Change Station
CLOSE
Current Station
Personal Weather Station
Location: Bisbee, AZ
Elevation: 5378 ft
Nearby Weather Stations

Elev 5378 ft 31.44 °N, 109.91 °W | Updated 11 seconds ago

Overcast
Overcast
63.3 °F
Feels Like 63.3 °F
N
0.0
Wind Variable Wind from SSE
Gusts 0.0 mph

Today
High -- | Low -- °F
--% Chance of Precip.
Yesterday
High -- | Low -- °F
Precip. -- in
5:56 AM 6:42 PM
Waning Gibbous, 73% visible
Pressure 29.94 in
Visibility 10.0 miles
Clouds Scattered Clouds 12000 ft
Dew Point 59 °F
Humidity 85%
Rainfall 0.15 in
Snow Depth Not available.
UV 0 out of 12
Pollen 5.20 out of 12
Air Quality Not available.
Flu Activity Not available.
METAR KDUG 030456Z AUTO 24004KT 10SM SCT120 21/16 A3014 RMK AO2 RAB0358E10 SLP136 P0000 T02060156
Pressure 29.94 in
Visibility 10.0 miles
Clouds Scattered Clouds 12000 ft
Dew Point 59 °F
Humidity 85%
Rainfall 0.15 in
Snow Depth Not available.
UV 0 out of 12
Pollen 5.20 out of 12
Air Quality Not available.
Flu Activity Not available.
METAR KDUG 030456Z AUTO 24004KT 10SM SCT120 21/16 A3014 RMK AO2 RAB0358E10 SLP136 P0000 T02060156

10-Day Weather Forecast

×

Almanac

Astronomy

Sep. 02, 2015 Rise Set
Actual Time
Civil Twilight
Nautical Twilight
Astronomical Twilight
Moon
Length of Visible Light
Length of Day
Tomorrow will be .
, % of the Moon is Illuminated

Today's Extremes

State Highs State Lows

Community

WunderPhotos

Upload Photos

1,851,914 photos uploaded!

WunderBlogs® & News

Nearby

Air Quality

  Air Quality AQ Index Pollutant
Not available.

Snow Depth

Station Depth Elevation

Earthquake Activity

City Distance Mag. Time & Date
Minimum magnitude displayed is 2.5.

Coastal Water Temperatures

Place Temperature

Stations

Nearby Weather Stations

Station Location Temp. Windchill Dew Point Humidity Wind Precip. Elev Updated Type